Time;durP1;ratioP1;P1;durP2;ratioP2;P2;SDS_P1;SDS_P2;PMS_P1;PMS_P2;Temp;Humidity;BMP_temperature;BMP_pressure;BME280_temperature;BME280_humidity;BME280_pressure;Samples;Min_cycle;Max_cycle;Signal;HPM_P1;HPM_P2
2021/10/01 00:03:43;;;;;;;;;;;8.90;99.90;;;7.61;99.50;96449.72;10536412;28;1943;-80
2021/10/01 00:08:46;;;;;;;;;;;8.90;99.90;;;7.59;99.51;96442.75;10525047;28;1981;-79
2021/10/01 00:13:49;;;;;;;;;;;8.80;99.90;;;7.57;100.00;96444.88;10536026;28;2005;-80
2021/10/01 00:18:52;;;;;;;;;;;8.90;99.90;;;7.66;99.84;96439.94;10530899;28;2061;-79
2021/10/01 00:23:55;;;;;;;;;;;8.90;99.90;;;7.67;100.00;96438.88;10534521;28;2033;-79
2021/10/01 00:28:58;;;;;;;;;;;8.90;99.90;;;7.70;100.00;96434.91;10532507;28;2013;-79
2021/10/01 00:34:01;;;;;;;;;;;8.90;99.90;;;7.65;100.00;96424.13;10536455;28;2131;-80
2021/10/01 00:39:04;;;;;;;;;;;8.90;99.90;;;7.55;100.00;96417.53;10533746;28;1984;-79
2021/10/01 00:44:07;;;;;;;;;;;8.80;99.90;;;7.56;100.00;96413.78;10541743;28;2030;-79
2021/10/01 00:49:10;;;;;;;;;;;8.80;99.90;;;7.53;100.00;96410.78;10534165;28;2066;-80
2021/10/01 00:54:12;;;;;;;;;;;8.80;99.90;;;7.58;100.00;96410.91;10533511;28;2033;-80
2021/10/01 00:59:15;;;;;;;;;;;8.70;99.90;;;7.57;100.00;96402.06;10549335;28;2045;-80
2021/10/01 01:04:18;;;;;;;;;;;8.70;99.90;;;7.48;100.00;96394.66;10539236;28;2034;-79
2021/10/01 01:09:21;;;;;;;;;;;8.80;99.90;;;7.43;100.00;96392.66;10528370;28;2018;-78
2021/10/01 01:14:29;;;;;;;;;;;8.70;99.90;;;7.35;100.00;96385.03;10532153;28;2003;-79
2021/10/01 01:19:32;;;;;;;;;;;8.70;99.90;;;7.42;100.00;96385.69;10535022;28;2077;-78
2021/10/01 01:24:35;;;;;;;;;;;8.60;99.90;;;7.42;100.00;96384.91;10534922;28;1967;-78
2021/10/01 01:29:39;;;;;;;;;;;8.60;99.90;;;7.38;100.00;96376.56;10546806;28;1975;-78
2021/10/01 01:34:42;;;;;;;;;;;8.60;99.90;;;7.31;100.00;96379.34;10537564;28;1982;-78
2021/10/01 01:39:45;;;;;;;;;;;8.60;99.90;;;7.16;100.00;96371.03;10536508;28;1985;-79
2021/10/01 01:44:47;;;;;;;;;;;8.40;99.90;;;7.10;100.00;96366.63;10540398;28;1830;-78
2021/10/01 01:49:50;;;;;;;;;;;8.30;99.90;;;7.08;100.00;96354.56;10531752;28;2407;-78
2021/10/01 01:54:53;;;;;;;;;;;8.30;99.90;;;7.07;100.00;96350.25;10535892;28;2320;-78
2021/10/01 01:59:57;;;;;;;;;;;8.30;99.90;;;7.02;100.00;96353.63;10532575;28;1982;-78
2021/10/01 02:05:00;;;;;;;;;;;8.20;99.90;;;7.02;100.00;96342.94;10536405;28;2032;-81
2021/10/01 02:10:02;;;;;;;;;;;8.20;99.90;;;6.93;100.00;96350.50;10545608;28;1845;-78
2021/10/01 02:15:05;;;;;;;;;;;8.20;99.90;;;6.89;100.00;96337.88;10577635;28;1986;-78
2021/10/01 02:20:08;;;;;;;;;;;8.10;99.90;;;6.86;100.00;96335.66;10573680;28;1771;-78
2021/10/01 02:30:30;;;;;;;;;;;8.10;99.90;;;6.68;100.00;96317.91;10561515;28;1692;-80
2021/10/01 02:35:33;;;;;;;;;;;8.00;99.90;;;6.68;100.00;96324.09;10537405;28;1988;-79
2021/10/01 02:40:36;;;;;;;;;;;7.90;99.90;;;6.71;100.00;96325.47;10527562;28;1967;-77
2021/10/01 02:45:39;;;;;;;;;;;7.90;99.90;;;6.54;100.00;96316.56;10547480;28;1861;-77
2021/10/01 02:50:42;;;;;;;;;;;7.80;99.90;;;6.61;100.00;96309.22;10531187;28;1950;-79
2021/10/01 02:55:45;;;;;;;;;;;7.80;99.90;;;6.62;100.00;96317.03;10550399;28;1914;-78
2021/10/01 03:00:47;;;;;;;;;;;7.80;99.90;;;6.62;100.00;96306.34;10575806;28;1846;-79
2021/10/01 03:05:50;;;;;;;;;;;7.80;99.90;;;6.65;100.00;96303.19;10571962;28;1932;-79
2021/10/01 03:10:53;;;;;;;;;;;7.80;99.90;;;6.66;100.00;96301.31;10551884;28;1827;-79
2021/10/01 03:15:56;;;;;;;;;;;7.80;99.90;;;6.55;100.00;96288.78;10538410;28;1979;-79
2021/10/01 03:20:59;;;;;;;;;;;7.80;99.90;;;6.53;100.00;96285.56;10537063;28;2286;-79
2021/10/01 03:26:02;;;;;;;;;;;7.70;99.90;;;6.54;100.00;96281.81;10536600;28;1869;-79
2021/10/01 03:31:05;;;;;;;;;;;7.70;99.90;;;6.54;100.00;96271.16;10538427;28;1900;-78
2021/10/01 03:36:08;;;;;;;;;;;7.70;99.90;;;6.55;100.00;96270.09;10531583;28;2144;-79
2021/10/01 03:41:11;;;;;;;;;;;7.70;99.90;;;6.58;100.00;96269.63;10541117;28;1909;-79
2021/10/01 03:46:13;;;;;;;;;;;7.70;99.90;;;6.50;100.00;96270.81;10546303;28;1908;-79
2021/10/01 03:51:16;;;;;;;;;;;7.70;99.90;;;6.54;100.00;96265.81;10533163;28;1903;-80
2021/10/01 03:56:21;;;;;;;;;;;7.70;99.90;;;6.59;100.00;96260.56;10561667;28;1957;-79
2021/10/01 04:01:24;;;;;;;;;;;7.70;99.90;;;6.57;100.00;96254.66;10568983;28;1401;-79
2021/10/01 04:06:27;;;;;;;;;;;7.70;99.90;;;6.53;100.00;96258.84;10543784;28;1904;-79
2021/10/01 04:11:30;;;;;;;;;;;7.70;99.90;;;6.44;100.00;96248.53;10564674;28;1755;-80
2021/10/01 04:16:46;;;;;;;;;;;7.70;99.90;;;6.44;100.00;96245.88;10569709;28;1953;-79
2021/10/01 04:21:49;;;;;;;;;;;7.70;99.90;;;6.40;100.00;96244.69;10574490;28;1874;-79
2021/10/01 04:26:54;;;;;;;;;;;7.70;99.90;;;6.45;100.00;96246.66;10563218;28;1868;-78
2021/10/01 04:31:57;;;;;;;;;;;7.60;99.90;;;6.18;100.00;96236.50;10529040;28;1977;-78
2021/10/01 04:37:00;;;;;;;;;;;7.50;99.90;;;5.98;100.00;96236.06;10537733;28;1909;-78
2021/10/01 04:42:03;;;;;;;;;;;7.30;99.90;;;5.94;100.00;96230.38;10540333;28;1796;-79
2021/10/01 04:47:06;;;;;;;;;;;7.20;99.90;;;6.07;100.00;96233.84;10546105;28;1913;-79
2021/10/01 04:52:09;;;;;;;;;;;7.30;99.90;;;6.14;100.00;96246.03;10559958;28;1912;-78
2021/10/01 04:57:12;;;;;;;;;;;7.30;99.90;;;6.16;100.00;96243.91;10553536;28;1947;-79
2021/10/01 05:02:15;;;;;;;;;;;7.40;99.90;;;6.29;100.00;96244.72;10567010;28;1825;-80
2021/10/01 05:07:20;;;;;;;;;;;7.40;99.90;;;6.29;100.00;96237.50;10571258;28;1923;-79
2021/10/01 05:12:23;;;;;;;;;;;7.50;99.90;;;6.23;100.00;96243.78;10568512;28;1526;-80
2021/10/01 05:17:26;;;;;;;;;;;7.50;99.90;;;6.29;100.00;96232.19;10551349;28;1920;-78
2021/10/01 05:22:29;;;;;;;;;;;7.50;99.90;;;6.36;100.00;96238.22;10554709;28;1867;-79
2021/10/01 05:27:31;;;;;;;;;;;7.50;99.90;;;6.38;100.00;96236.13;10552747;28;1530;-79
2021/10/01 05:32:34;;;;;;;;;;;7.60;99.90;;;6.43;100.00;96236.22;10556479;28;1784;-75
2021/10/01 05:37:37;;;;;;;;;;;7.50;99.90;;;6.56;100.00;96234.34;10526045;28;1983;-75
2021/10/01 05:42:40;;;;;;;;;;;7.60;99.90;;;6.65;100.00;96228.38;10552875;28;1876;-82
2021/10/01 05:47:43;;;;;;;;;;;7.70;99.90;;;6.76;100.00;96232.06;10544645;28;1932;-82
2021/10/01 05:52:56;;;;;;;;;;;7.80;99.90;;;6.89;100.00;96223.75;10549553;28;1874;-81
2021/10/01 05:57:59;;;;;;;;;;;7.90;99.90;;;7.07;100.00;96225.44;10544408;28;1900;-82
2021/10/01 06:03:02;;;;;;;;;;;8.10;99.90;;;7.24;100.00;96225.44;10546143;28;1817;-82
2021/10/01 06:08:05;;;;;;;;;;;8.50;99.90;;;7.27;100.00;96224.97;10555532;28;1673;-80
2021/10/01 06:13:08;;;;;;;;;;;8.30;99.90;;;7.32;99.67;96235.75;10553878;28;1926;-81
2021/10/01 06:18:11;;;;;;;;;;;8.30;99.90;;;7.46;98.27;96226.38;10540553;28;1913;-83
2021/10/01 06:23:16;;;;;;;;;;;8.40;99.90;;;7.61;98.03;96231.16;10554250;28;2203;-80
2021/10/01 06:28:19;;;;;;;;;;;8.50;99.90;;;7.93;96.47;96226.00;10569385;28;1876;-84
2021/10/01 06:33:22;;;;;;;;;;;8.70;99.90;;;8.21;95.36;96221.59;10555202;28;1904;-81
2021/10/01 06:38:25;;;;;;;;;;;9.00;99.90;;;8.45;93.94;96223.00;10550262;28;1980;-80
2021/10/01 06:43:29;;;;;;;;;;;9.20;99.90;;;8.68;91.72;96219.25;10566091;28;1963;-80
2021/10/01 06:48:44;;;;;;;;;;;9.50;99.90;;;8.91;91.56;96220.88;10555311;28;1961;-79
2021/10/01 08:19:29;;;;;;;;;;;12.10;99.90;;;11.58;80.29;96204.91;10561798;28;1882;-79
2021/10/01 08:24:32;;;;;;;;;;;12.30;99.90;;;11.43;80.48;96222.91;10569602;28;1878;-82
2021/10/01 08:29:35;;;;;;;;;;;12.30;99.90;;;11.47;80.95;96207.84;10572833;28;2009;-79
2021/10/01 08:34:38;;;;;;;;;;;12.30;99.90;;;11.94;77.98;96209.47;10568700;28;1597;-80
2021/10/01 08:39:41;;;;;;;;;;;12.50;99.90;;;11.87;78.21;96202.47;10566327;28;1956;-80
2021/10/01 08:44:44;;;;;;;;;;;12.60;99.90;;;12.14;76.15;96207.56;10569526;28;1776;-82
2021/10/01 08:49:47;;;;;;;;;;;12.80;99.90;;;12.48;75.14;96212.34;10566032;28;1855;-80
2021/10/01 08:54:50;;;;;;;;;;;13.00;99.90;;;12.66;74.84;96208.22;10558801;28;1922;-80
2021/10/01 08:59:53;;;;;;;;;;;13.30;99.90;;;12.81;73.04;96202.75;10563139;28;1922;-79
2021/10/01 09:05:00;;;;;;;;;;;13.50;99.90;;;12.95;72.20;96192.97;10566376;28;1764;-78
2021/10/01 09:10:04;;;;;;;;;;;13.60;99.90;;;13.01;73.03;96182.16;10564651;28;1753;-77
2021/10/01 09:15:08;;;;;;;;;;;13.70;99.90;;;13.27;70.58;96175.53;10569424;28;1850;-80
2021/10/01 09:20:15;;;;;;;;;;;13.90;99.90;;;13.12;69.94;96183.72;10569036;28;1981;-80
2021/10/01 09:25:22;;;;;;;;;;;14.00;99.90;;;13.51;70.00;96179.16;10570481;28;1894;-78
2021/10/01 09:30:25;;;;;;;;;;;14.10;99.90;;;13.90;67.00;96175.56;10578365;28;1864;-77
2021/10/01 09:35:28;;;;;;;;;;;14.50;99.90;;;13.78;66.50;96169.72;10571688;28;1742;-78
2021/10/01 09:40:31;;;;;;;;;;;14.60;99.90;;;13.84;66.84;96162.41;10574001;28;1967;-78
2021/10/01 09:45:34;;;;;;;;;;;14.80;99.90;;;13.94;66.33;96155.00;10577733;28;1947;-78
2021/10/01 09:50:37;;;;;;;;;;;14.70;99.90;;;14.15;66.11;96152.09;10574454;28;1825;-79
2021/10/01 09:55:41;;;;;;;;;;;14.90;99.90;;;14.48;64.85;96150.38;10566644;28;1856;-78
2021/10/01 10:00:45;;;;;;;;;;;15.10;99.90;;;14.74;63.03;96131.94;10574344;28;1976;-78
2021/10/01 10:05:48;;;;;;;;;;;15.40;99.90;;;14.91;63.17;96126.81;10578812;28;1763;-78
2021/10/01 10:10:54;;;;;;;;;;;15.60;99.90;;;15.12;61.26;96121.91;10580971;28;1704;-79
2021/10/01 10:15:57;;;;;;;;;;;15.70;99.90;;;14.91;60.84;96113.28;10577668;28;1885;-78
2021/10/01 10:21:00;;;;;;;;;;;16.00;99.90;;;14.92;62.37;96105.97;10577757;28;2167;-78
2021/10/01 10:26:03;;;;;;;;;;;15.90;99.90;;;15.18;63.16;96111.81;10578147;28;1755;-79
2021/10/01 10:31:06;;;;;;;;;;;16.00;99.90;;;15.03;61.99;96107.44;10569917;28;1935;-79
2021/10/01 10:36:09;;;;;;;;;;;16.00;99.90;;;15.36;61.42;96106.38;10556973;28;1838;-79
2021/10/01 10:41:12;;;;;;;;;;;16.10;99.90;;;15.34;61.57;96099.66;10557829;28;1953;-78
2021/10/01 10:46:15;;;;;;;;;;;16.20;99.90;;;15.55;61.10;96095.50;10555036;28;2032;-79
2021/10/01 10:51:18;;;;;;;;;;;16.30;99.90;;;15.41;60.93;96092.75;10560975;28;1930;-80
2021/10/01 10:56:20;;;;;;;;;;;16.30;99.90;;;15.70;58.71;96078.19;10558211;28;2019;-78
2021/10/01 11:01:25;;;;;;;;;;;16.40;99.90;;;15.88;58.08;96062.97;10557986;28;2130;-79
2021/10/01 11:06:29;;;;;;;;;;;16.60;99.90;;;16.04;59.18;96060.78;10571730;28;1821;-78
2021/10/01 11:11:32;;;;;;;;;;;16.70;99.90;;;16.12;58.34;96058.16;10566406;28;2162;-80
2021/10/01 11:16:35;;;;;;;;;;;16.90;99.90;;;15.94;60.79;96050.91;10559630;28;2021;-78
2021/10/01 11:21:42;;;;;;;;;;;16.90;99.90;;;16.16;58.37;96040.19;10559156;28;2178;-80
2021/10/01 11:26:45;;;;;;;;;;;16.80;99.90;;;16.25;57.72;96051.13;10559721;28;1834;-81
2021/10/01 11:31:48;;;;;;;;;;;17.10;99.90;;;16.49;58.19;96040.84;10562707;28;1993;-80
2021/10/01 11:36:51;;;;;;;;;;;17.20;99.90;;;16.48;56.59;96033.00;10551059;28;1748;-81
2021/10/01 11:41:54;;;;;;;;;;;17.30;99.90;;;16.70;55.30;96016.78;10529728;28;1989;-80
2021/10/01 11:46:57;;;;;;;;;;;17.50;99.90;;;16.63;58.81;96008.22;10537208;28;1919;-82
2021/10/01 11:52:00;;;;;;;;;;;17.60;99.90;;;16.72;58.22;96000.19;10545567;28;2044;-81
2021/10/01 11:57:03;;;;;;;;;;;17.70;99.90;;;16.77;58.16;95999.28;10537061;28;1881;-81
2021/10/01 12:02:05;;;;;;;;;;;17.60;99.90;;;16.90;58.11;95995.69;10558175;28;1994;-81
2021/10/01 12:07:09;;;;;;;;;;;17.70;99.90;;;16.82;58.05;95982.88;10544425;28;1912;-80
2021/10/01 12:12:13;;;;;;;;;;;17.70;99.90;;;17.09;57.70;95969.16;10547507;28;1926;-81
2021/10/01 12:17:16;;;;;;;;;;;17.80;99.90;;;17.19;56.66;95955.31;10540196;28;1857;-79
2021/10/01 12:22:20;;;;;;;;;;;18.00;99.90;;;17.26;55.51;95961.13;10529647;28;2278;-79
2021/10/01 12:27:23;;;;;;;;;;;18.10;99.90;;;17.21;56.55;95953.09;10530617;28;2334;-80
2021/10/01 12:32:26;;;;;;;;;;;18.10;99.90;;;17.23;56.53;95950.84;10531227;28;1822;-79
2021/10/01 12:37:29;;;;;;;;;;;18.10;99.90;;;17.62;55.77;95937.59;10522664;28;1920;-77
2021/10/01 12:42:32;;;;;;;;;;;18.30;99.90;;;17.54;55.45;95933.75;10541957;28;1597;-76
2021/10/01 12:47:35;;;;;;;;;;;18.40;99.90;;;17.77;54.65;95926.34;10545117;28;1966;-75
2021/10/01 12:52:38;;;;;;;;;;;18.50;99.90;;;18.26;51.46;95922.44;10530498;28;1899;-76
2021/10/01 12:57:40;;;;;;;;;;;19.00;99.90;;;17.99;53.92;95918.06;10530712;28;2079;-76
2021/10/01 13:02:43;;;;;;;;;;;18.90;99.90;;;17.89;54.21;95912.94;10533455;28;1921;-76
2021/10/01 13:07:46;;;;;;;;;;;18.80;99.90;;;18.24;54.84;95908.34;10529217;28;1763;-75
2021/10/01 13:12:50;;;;;;;;;;;19.00;99.90;;;17.89;53.18;95895.81;10537819;28;1880;-77
2021/10/01 13:17:53;;;;;;;;;;;18.90;99.90;;;17.83;55.16;95893.25;10532033;28;1905;-77
2021/10/01 13:22:57;;;;;;;;;;;18.80;99.90;;;18.18;53.96;95884.34;10552474;28;1845;-77
2021/10/01 13:28:00;;;;;;;;;;;19.00;99.90;;;17.98;53.90;95870.22;10539682;28;2061;-77
2021/10/01 13:33:03;;;;;;;;;;;19.00;99.90;;;17.99;53.06;95868.31;10532349;28;2368;-77
2021/10/01 13:38:09;;;;;;;;;;;18.90;99.90;;;18.15;53.14;95868.66;10525999;28;1909;-74
2021/10/01 13:43:12;;;;;;;;;;;19.00;99.90;;;18.26;52.13;95870.75;10531966;28;1838;-74
2021/10/01 13:48:15;;;;;;;;;;;19.10;99.90;;;18.30;53.34;95862.72;10519448;28;1825;-74
2021/10/01 13:53:18;;;;;;;;;;;19.10;99.90;;;18.25;51.42;95860.97;10524290;28;1939;-74
2021/10/01 13:58:21;;;;;;;;;;;19.20;99.90;;;18.37;54.26;95852.97;10525057;28;2307;-75
2021/10/01 14:03:24;;;;;;;;;;;19.10;99.90;;;18.30;54.25;95847.19;10517247;28;1917;-74
2021/10/01 14:08:26;;;;;;;;;;;19.20;99.90;;;18.38;54.94;95848.31;10522085;28;1872;-75
2021/10/01 14:13:32;;;;;;;;;;;19.20;99.90;;;18.22;55.59;95844.50;10526263;28;1893;-75
2021/10/01 14:18:38;;;;;;;;;;;19.10;99.90;;;18.17;55.69;95837.28;10525878;28;1985;-75
2021/10/01 14:23:44;;;;;;;;;;;19.10;99.90;;;18.21;53.71;95838.25;10523189;28;1787;-74
2021/10/01 14:28:47;;;;;;;;;;;19.10;99.90;;;18.27;53.79;95834.25;10526145;28;2180;-74
2021/10/01 14:33:50;;;;;;;;;;;19.10;99.90;;;18.17;55.45;95831.84;10518113;28;2014;-74
2021/10/01 14:38:53;;;;;;;;;;;19.10;99.90;;;18.18;55.86;95825.28;10528100;28;1930;-74
2021/10/01 14:43:56;;;;;;;;;;;19.00;99.90;;;18.18;55.26;95817.13;10525387;28;2123;-74
2021/10/01 14:48:58;;;;;;;;;;;19.00;99.90;;;18.49;52.59;95824.28;10520677;28;2022;-73
2021/10/01 14:54:01;;;;;;;;;;;19.20;99.90;;;18.31;54.60;95818.88;10538923;28;1732;-73
2021/10/01 14:59:04;;;;;;;;;;;19.20;99.90;;;18.30;55.46;95822.72;10536770;28;1915;-75
2021/10/01 15:04:07;;;;;;;;;;;19.20;99.90;;;18.15;56.46;95811.53;10536963;28;1837;-74
2021/10/01 15:09:10;;;;;;;;;;;19.20;99.90;;;18.19;56.60;95807.81;10546742;28;1868;-76
2021/10/01 15:14:13;;;;;;;;;;;19.10;99.90;;;18.19;56.99;95801.59;10536650;28;1821;-76
2021/10/01 15:19:16;;;;;;;;;;;19.10;99.90;;;18.06;57.77;95797.91;10527499;28;1953;-76
2021/10/01 15:24:19;;;;;;;;;;;19.00;99.90;;;18.01;58.23;95801.63;10531662;28;1946;-76
2021/10/01 15:29:21;;;;;;;;;;;19.00;99.90;;;18.02;58.49;95794.25;10528783;28;1947;-76
2021/10/01 15:34:25;;;;;;;;;;;18.90;99.90;;;17.86;59.52;95782.25;10525461;28;1926;-75
2021/10/01 15:39:28;;;;;;;;;;;18.80;99.90;;;17.88;59.66;95785.44;10546943;28;1896;-74
2021/10/01 15:44:33;;;;;;;;;;;18.80;99.90;;;17.73;60.23;95789.44;10530667;28;1967;-74
2021/10/01 15:49:36;;;;;;;;;;;18.70;99.90;;;17.71;60.02;95784.31;10536887;28;1953;-74
2021/10/01 15:54:40;;;;;;;;;;;18.70;99.90;;;17.62;60.65;95785.38;10527007;28;1894;-74
2021/10/01 15:59:42;;;;;;;;;;;18.60;99.90;;;17.48;61.44;95790.97;10530983;28;1974;-75
2021/10/01 16:04:46;;;;;;;;;;;18.50;99.90;;;17.21;62.96;95790.09;10519349;28;1809;-76
2021/10/01 16:09:48;;;;;;;;;;;18.40;99.90;;;17.07;62.80;95794.84;10525424;28;1806;-76
2021/10/01 16:14:51;;;;;;;;;;;18.20;99.90;;;17.05;62.79;95794.38;10527709;28;1861;-74
2021/10/01 16:19:54;;;;;;;;;;;18.10;99.90;;;16.94;63.00;95793.06;10521506;28;1957;-75
2021/10/01 16:24:57;;;;;;;;;;;18.00;99.90;;;16.73;63.81;95796.31;10524298;28;1857;-76
2021/10/01 16:30:00;;;;;;;;;;;17.90;99.90;;;16.54;64.88;95793.00;10527446;28;1866;-75
2021/10/01 16:35:03;;;;;;;;;;;17.70;99.90;;;16.42;65.35;95796.28;10523732;28;2460;-76
2021/10/01 16:40:06;;;;;;;;;;;17.50;99.90;;;16.31;65.02;95788.69;10528060;28;1975;-75
2021/10/01 16:45:09;;;;;;;;;;;17.40;99.90;;;16.13;65.03;95794.00;10533109;28;1912;-75
2021/10/01 16:50:11;;;;;;;;;;;17.30;99.90;;;15.89;66.24;95790.78;10531894;28;1900;-75
2021/10/01 16:55:15;;;;;;;;;;;17.10;99.90;;;15.70;67.46;95782.00;10531252;28;1856;-74
2021/10/01 17:00:18;;;;;;;;;;;16.90;99.90;;;15.52;69.32;95778.28;10535169;28;1943;-74
2021/10/01 17:05:21;;;;;;;;;;;16.70;99.90;;;15.27;71.17;95785.06;10525895;28;1860;-76
2021/10/01 17:10:24;;;;;;;;;;;16.50;99.90;;;15.12;72.93;95781.56;10532691;28;1830;-76
2021/10/01 17:15:27;;;;;;;;;;;16.30;99.90;;;15.01;74.27;95791.00;10528916;28;1947;-74
2021/10/01 17:20:30;;;;;;;;;;;16.20;99.90;;;14.73;76.65;95792.09;10530572;28;1977;-74
2021/10/01 17:25:33;;;;;;;;;;;16.00;99.90;;;14.48;78.67;95788.75;10525074;28;1912;-75
2021/10/01 17:30:36;;;;;;;;;;;15.70;99.90;;;14.33;80.41;95789.00;10536756;28;1896;-75
2021/10/01 17:35:39;;;;;;;;;;;15.60;99.90;;;14.06;82.68;95781.59;10532518;28;1879;-73
2021/10/01 17:40:42;;;;;;;;;;;15.40;99.90;;;14.05;84.25;95786.19;10531947;28;1975;-75
2021/10/01 17:45:44;;;;;;;;;;;15.30;99.90;;;14.05;85.76;95790.78;10527753;28;1918;-75
2021/10/01 17:50:47;;;;;;;;;;;15.20;99.90;;;13.82;86.31;95784.41;10531494;28;2037;-75
2021/10/01 17:55:50;;;;;;;;;;;15.10;99.90;;;13.59;88.87;95794.19;10529344;28;1783;-75
2021/10/01 18:00:53;;;;;;;;;;;14.90;99.90;;;13.64;90.20;95790.63;10531653;28;2366;-74
2021/10/01 18:05:57;;;;;;;;;;;14.80;99.90;;;13.49;91.71;95784.34;10524092;28;1903;-75
2021/10/01 18:11:00;;;;;;;;;;;14.80;99.90;;;13.50;92.12;95780.56;10526766;28;1921;-74
2021/10/01 18:16:03;;;;;;;;;;;14.70;99.90;;;13.47;93.57;95780.31;10526347;28;1947;-75
2021/10/01 18:21:07;;;;;;;;;;;14.70;99.90;;;13.42;94.56;95778.50;10527224;28;1906;-76
2021/10/01 18:26:10;;;;;;;;;;;14.60;99.90;;;13.37;94.75;95783.97;10528381;28;1853;-75
2021/10/01 18:31:13;;;;;;;;;;;14.60;99.90;;;13.29;96.07;95781.91;10535033;28;1928;-74
2021/10/01 18:36:19;;;;;;;;;;;14.50;99.90;;;13.23;97.14;95774.97;10531560;28;1957;-74
2021/10/01 18:41:22;;;;;;;;;;;14.50;99.90;;;13.18;97.38;95772.31;10524865;28;1988;-75
2021/10/01 18:46:24;;;;;;;;;;;14.40;99.90;;;13.11;97.93;95775.38;10531859;28;1783;-75
2021/10/01 18:51:27;;;;;;;;;;;14.30;99.90;;;12.94;98.92;95781.25;10532611;28;1877;-75
2021/10/01 18:56:30;;;;;;;;;;;14.20;99.90;;;13.00;99.58;95781.97;10530912;28;1830;-75
2021/10/01 19:01:33;;;;;;;;;;;14.20;99.90;;;12.89;99.26;95786.69;10526942;28;2020;-75
2021/10/01 19:06:39;;;;;;;;;;;14.10;99.90;;;12.78;100.00;95779.78;10526772;28;1863;-76
2021/10/01 19:11:42;;;;;;;;;;;14.00;99.90;;;12.78;100.00;95782.50;10529031;28;1885;-74
2021/10/01 19:16:45;;;;;;;;;;;14.00;99.90;;;12.73;100.00;95776.38;10523494;28;1895;-74
2021/10/01 19:21:48;;;;;;;;;;;13.90;99.90;;;12.61;100.00;95772.19;10526910;28;1959;-74
2021/10/01 19:27:05;;;;;;;;;;;13.90;99.90;;;12.73;100.00;95779.88;10526190;28;1969;-76
2021/10/01 19:32:08;;;;;;;;;;;13.80;99.90;;;12.68;100.00;95786.13;10528004;28;1848;-74
2021/10/01 19:37:14;;;;;;;;;;;13.80;99.90;;;12.62;100.00;95781.06;10525202;28;1943;-73
2021/10/01 19:42:17;;;;;;;;;;;13.80;99.90;;;12.58;100.00;95780.03;10530850;28;1894;-74
2021/10/01 19:47:20;;;;;;;;;;;13.80;99.90;;;12.47;100.00;95781.22;10520676;28;1821;-74
2021/10/01 19:52:23;;;;;;;;;;;13.70;99.90;;;12.27;100.00;95780.31;10525246;28;2024;-76
2021/10/01 19:57:25;;;;;;;;;;;13.50;99.90;;;12.21;100.00;95781.44;10527310;28;1420;-77
2021/10/01 20:02:29;;;;;;;;;;;13.40;99.90;;;12.09;100.00;95776.47;10529672;28;1917;-74
2021/10/01 20:07:32;;;;;;;;;;;13.40;99.90;;;11.99;100.00;95773.03;10522865;28;1981;-74
2021/10/01 20:12:35;;;;;;;;;;;13.20;99.90;;;11.92;100.00;95767.97;10529099;28;2036;-76
2021/10/01 20:17:40;;;;;;;;;;;13.20;99.90;;;12.02;100.00;95772.47;10523648;28;1947;-73
2021/10/01 20:22:52;;;;;;;;;;;13.10;99.90;;;11.81;100.00;95761.84;10531399;28;1977;-73
2021/10/01 20:49:18;;;;;;;;;;;12.70;99.90;;;11.35;100.00;95754.06;10530998;28;1934;-75
2021/10/01 20:54:22;;;;;;;;;;;12.60;99.90;;;11.30;100.00;95755.97;10530770;28;1772;-74
2021/10/01 20:59:29;;;;;;;;;;;12.50;99.90;;;11.21;100.00;95746.91;10530371;28;1904;-75
2021/10/01 21:42:23;;;;;;;;;;;12.30;99.90;;;10.98;100.00;95743.78;10577843;28;1953;-72
2021/10/01 21:47:56;;;;;;;;;;;12.20;99.90;;;10.91;100.00;95745.16;10573040;28;1941;-72
2021/10/01 21:53:19;;;;;;;;;;;12.10;99.90;;;10.88;100.00;95743.00;10574719;28;1997;-73
2021/10/01 21:58:42;;;;;;;;;;;12.10;99.90;;;10.85;100.00;95740.88;10572353;28;1815;-72
2021/10/01 22:09:07;;;;;;;;;;;12.00;99.90;;;10.68;100.00;95736.63;10538569;28;1803;-74
2021/10/01 22:24:50;;;;;;;;;;;11.80;99.90;;;10.59;100.00;95741.00;10526085;28;1912;-74
2021/10/01 22:29:53;;;;;;;;;;;11.80;99.90;;;10.46;100.00;95741.56;10528889;28;1961;-74
2021/10/01 22:34:56;;;;;;;;;;;11.70;99.90;;;10.39;100.00;95739.16;10528603;28;1903;-74
2021/10/01 22:40:03;;;;;;;;;;;11.60;99.90;;;10.42;100.00;95735.13;10530064;28;1915;-74
2021/10/01 22:45:06;;;;;;;;;;;11.60;99.90;;;10.42;100.00;95737.81;10523687;28;1900;-74
2021/10/01 22:50:09;;;;;;;;;;;11.60;99.90;;;10.38;100.00;95734.88;10525792;28;1891;-74
2021/10/01 22:55:12;;;;;;;;;;;11.60;99.90;;;10.37;100.00;95729.75;10528696;28;1881;-74
2021/10/01 23:00:16;;;;;;;;;;;11.60;99.90;;;10.35;100.00;95730.03;10527423;28;1917;-74
2021/10/01 23:05:23;;;;;;;;;;;11.50;99.90;;;10.39;100.00;95730.31;10526158;28;1771;-74
2021/10/01 23:10:34;;;;;;;;;;;11.50;99.90;;;10.48;100.00;95725.97;10531452;28;1741;-74
2021/10/01 23:15:45;;;;;;;;;;;11.60;99.90;;;10.58;100.00;95723.25;10528311;28;1915;-74
2021/10/01 23:42:35;;;;;;;;;;;11.90;99.90;;;10.85;100.00;95725.56;10528191;28;1906;-75
2021/10/01 23:53:11;;;;;;;;;;;11.90;99.90;;;10.66;100.00;95725.38;10524981;28;1907;-74
